createdAt,value
2022-08-08T00:00:50.546Z,100.00
2022-08-08T00:03:00.840Z,100.00
2022-08-08T00:06:35.270Z,100.00
2022-08-08T00:09:53.946Z,100.00
2022-08-08T00:13:10.631Z,100.00
2022-08-08T00:16:24.691Z,100.00
2022-08-08T00:19:41.155Z,100.00
2022-08-08T00:22:55.903Z,100.00
2022-08-08T00:26:05.115Z,100.00
2022-08-08T00:29:44.439Z,100.00
2022-08-08T00:32:47.911Z,100.00
2022-08-08T00:36:03.227Z,100.00
2022-08-08T00:41:07.300Z,100.00
2022-08-08T00:43:19.290Z,100.00
2022-08-08T00:47:14.108Z,100.00
2022-08-08T00:51:02.056Z,100.00
2022-08-08T00:54:43.366Z,100.00
2022-08-08T00:58:30.739Z,100.00
2022-08-08T01:01:49.312Z,100.00
2022-08-08T01:05:29.208Z,100.00
2022-08-08T01:09:36.422Z,100.00
2022-08-08T01:13:43.523Z,100.00
2022-08-08T01:17:53.962Z,100.00
2022-08-08T01:22:03.729Z,100.00
2022-08-08T01:25:40.153Z,100.00
2022-08-08T01:29:24.162Z,100.00
2022-08-08T01:33:27.456Z,100.00
2022-08-08T01:37:13.420Z,100.00
2022-08-08T01:40:28.548Z,100.00
2022-08-08T01:43:50.710Z,100.00
2022-08-08T01:48:13.688Z,100.00
2022-08-08T01:50:55.575Z,100.00
2022-08-08T01:55:25.562Z,100.00
2022-08-08T01:58:12.185Z,100.00
2022-08-08T02:01:28.169Z,100.00
2022-08-08T02:05:02.980Z,100.00
2022-08-08T02:08:16.438Z,100.00
2022-08-08T02:11:59.549Z,100.00
2022-08-08T02:15:05.484Z,100.00
2022-08-08T02:18:25.386Z,100.00
2022-08-08T02:21:58.099Z,100.00
2022-08-08T02:25:15.111Z,100.00
2022-08-08T02:28:43.146Z,100.00
2022-08-08T02:32:33.430Z,100.00
2022-08-08T02:36:28.622Z,100.00
2022-08-08T02:40:00.673Z,100.00
2022-08-08T02:44:42.990Z,100.00
2022-08-08T02:48:09.024Z,100.00
2022-08-08T02:52:32.493Z,100.00
2022-08-08T02:56:18.154Z,100.00
2022-08-08T03:00:26.862Z,100.00
2022-08-08T03:05:04.334Z,100.00
2022-08-08T03:08:29.851Z,100.00
2022-08-08T03:12:14.311Z,100.00
2022-08-08T03:16:06.599Z,100.00
2022-08-08T03:19:24.878Z,100.00
2022-08-08T03:22:50.993Z,100.00
2022-08-08T03:25:59.136Z,100.00
2022-08-08T03:29:17.161Z,100.00
2022-08-08T03:32:53.314Z,100.00
2022-08-08T03:36:05.259Z,100.00
2022-08-08T03:39:17.166Z,100.00
2022-08-08T03:42:30.042Z,100.00
2022-08-08T03:46:04.862Z,100.00
2022-08-08T03:49:38.088Z,100.00
2022-08-08T03:52:33.923Z,100.00
2022-08-08T03:55:56.448Z,100.00
2022-08-08T03:59:05.967Z,100.00
2022-08-08T04:02:33.178Z,100.00
2022-08-08T04:05:48.044Z,100.00
2022-08-08T04:08:56.840Z,100.00
2022-08-08T04:12:03.219Z,100.00
2022-08-08T04:15:12.202Z,100.00
2022-08-08T04:18:18.547Z,100.00
2022-08-08T04:21:24.690Z,100.00
2022-08-08T04:24:34.148Z,100.00
2022-08-08T04:28:03.324Z,100.00
2022-08-08T04:31:09.412Z,100.00
2022-08-08T04:34:15.695Z,100.00
2022-08-08T04:37:31.536Z,100.00
2022-08-08T04:40:38.883Z,100.00
2022-08-08T04:43:58.533Z,100.00
2022-08-08T04:47:06.694Z,100.00
2022-08-08T04:50:25.537Z,100.00
2022-08-08T04:54:27.298Z,100.00
2022-08-08T04:57:05.397Z,100.00
2022-08-08T05:00:12.910Z,100.00
2022-08-08T05:04:09.154Z,100.00
2022-08-08T05:06:54.056Z,100.00
2022-08-08T05:10:01.058Z,100.00
2022-08-08T05:13:17.585Z,100.00
2022-08-08T05:16:48.572Z,100.00
2022-08-08T05:20:09.147Z,100.00
2022-08-08T05:23:17.869Z,100.00
2022-08-08T05:26:27.428Z,100.00
2022-08-08T05:29:35.974Z,100.00
2022-08-08T05:32:43.628Z,100.00
2022-08-08T05:35:54.411Z,100.00
2022-08-08T05:39:01.724Z,100.00
2022-08-08T05:42:08.564Z,100.00
2022-08-08T05:45:31.072Z,100.00
2022-08-08T05:48:39.035Z,100.00
2022-08-08T05:51:50.588Z,100.00
2022-08-08T05:55:04.482Z,100.00
2022-08-08T05:58:17.934Z,100.00
2022-08-08T06:01:52.643Z,100.00
2022-08-08T06:04:57.573Z,100.00
2022-08-08T06:08:09.849Z,100.00
2022-08-08T06:11:28.342Z,100.00
2022-08-08T06:14:35.166Z,100.00
2022-08-08T06:17:51.229Z,98.84
2022-08-08T06:21:11.464Z,98.84
2022-08-08T06:24:30.237Z,98.96
2022-08-08T06:27:48.154Z,99.27
2022-08-08T06:30:57.790Z,96.69
2022-08-08T06:34:26.676Z,91.92
2022-08-08T06:37:38.108Z,87.85
2022-08-08T06:40:53.808Z,82.66
2022-08-08T06:44:04.287Z,78.66
2022-08-08T06:47:11.479Z,74.10
2022-08-08T06:50:32.379Z,74.85
2022-08-08T06:53:51.250Z,69.71
2022-08-08T06:57:05.076Z,61.88
2022-08-08T07:00:16.831Z,58.79
2022-08-08T07:03:51.878Z,53.27
2022-08-08T07:07:19.498Z,51.79
2022-08-08T07:10:27.719Z,47.53
2022-08-08T07:14:00.737Z,45.94
2022-08-08T07:17:14.382Z,47.99
2022-08-08T07:20:30.910Z,45.85
2022-08-08T07:24:01.863Z,46.13
2022-08-08T07:27:16.677Z,46.96
2022-08-08T07:30:25.936Z,45.19
2022-08-08T07:33:37.897Z,45.68
2022-08-08T07:37:00.332Z,42.92
2022-08-08T07:40:08.666Z,42.87
2022-08-08T07:43:16.973Z,42.55
2022-08-08T07:46:42.850Z,42.22
2022-08-08T07:49:49.504Z,43.40
2022-08-08T07:53:00.903Z,40.46
2022-08-08T07:56:13.323Z,39.86
2022-08-08T07:59:20.576Z,38.90
2022-08-08T08:02:38.756Z,40.47
2022-08-08T08:05:51.774Z,39.12
2022-08-08T08:09:08.253Z,38.86
2022-08-08T08:12:26.513Z,38.05
2022-08-08T08:15:42.443Z,37.23
2022-08-08T08:18:56.087Z,36.66
2022-08-08T08:22:02.975Z,37.64
2022-08-08T08:25:16.704Z,36.95
2022-08-08T08:28:26.138Z,37.40
2022-08-08T08:31:41.524Z,38.15
2022-08-08T08:34:50.260Z,36.66
2022-08-08T08:38:16.111Z,36.67
2022-08-08T08:41:24.106Z,36.15
2022-08-08T08:44:31.566Z,38.10
2022-08-08T08:47:43.952Z,36.50
2022-08-08T08:50:54.811Z,35.28
2022-08-08T08:54:03.321Z,36.00
2022-08-08T08:57:15.986Z,37.89
2022-08-08T09:01:05.027Z,36.61
2022-08-08T09:04:30.322Z,35.62
2022-08-08T09:07:52.215Z,35.96
2022-08-08T09:11:12.220Z,33.99
2022-08-08T09:14:21.674Z,34.86
2022-08-08T09:17:40.895Z,34.02
2022-08-08T09:22:00.864Z,36.48
2022-08-08T09:24:17.750Z,35.32
2022-08-08T09:27:57.650Z,36.75
2022-08-08T09:30:54.826Z,34.84
2022-08-08T09:34:31.248Z,36.21
2022-08-08T09:38:01.914Z,36.26
2022-08-08T09:41:05.405Z,37.78
2022-08-08T09:44:29.724Z,37.55
2022-08-08T09:48:09.809Z,39.25
2022-08-08T09:51:10.228Z,38.05
2022-08-08T09:54:37.790Z,36.38
2022-08-08T09:57:55.598Z,34.23
2022-08-08T10:01:14.920Z,37.33
2022-08-08T10:04:42.154Z,38.10
2022-08-08T10:08:00.027Z,34.80
2022-08-08T10:12:22.364Z,35.04
2022-08-08T10:14:38.582Z,34.05
2022-08-08T10:18:05.335Z,35.08
2022-08-08T10:21:24.905Z,34.20
2022-08-08T10:24:35.191Z,34.54
2022-08-08T10:27:44.759Z,34.04
2022-08-08T10:31:01.885Z,33.48
2022-08-08T10:34:18.484Z,31.80
2022-08-08T10:37:28.216Z,30.81
2022-08-08T10:40:40.008Z,32.32
2022-08-08T10:43:52.115Z,31.05
2022-08-08T10:47:10.132Z,32.17
2022-08-08T10:50:16.253Z,31.87
2022-08-08T10:53:39.370Z,32.43
2022-08-08T10:57:05.540Z,31.70
2022-08-08T11:00:16.803Z,31.80
2022-08-08T11:03:36.777Z,31.33
2022-08-08T11:08:30.043Z,30.98
2022-08-08T11:10:45.103Z,31.53
2022-08-08T11:14:00.013Z,30.97
2022-08-08T11:17:08.762Z,31.66
2022-08-08T11:20:28.309Z,32.02
2022-08-08T11:23:36.343Z,32.16
2022-08-08T11:26:56.339Z,29.54
2022-08-08T11:30:20.229Z,31.85
2022-08-08T11:33:35.325Z,31.04
2022-08-08T11:37:14.815Z,28.73
2022-08-08T11:40:26.449Z,28.47
2022-08-08T11:43:39.422Z,30.64
2022-08-08T11:46:53.858Z,30.61
2022-08-08T11:50:04.072Z,30.86
2022-08-08T11:53:17.719Z,30.67
2022-08-08T11:56:34.942Z,32.46
2022-08-08T12:00:01.939Z,32.83
2022-08-08T12:03:21.159Z,32.68
2022-08-08T12:06:28.008Z,33.25
2022-08-08T12:09:56.847Z,34.38
2022-08-08T12:13:04.634Z,32.84
2022-08-08T12:16:13.354Z,32.65
2022-08-08T12:19:31.249Z,30.62
2022-08-08T12:22:51.093Z,31.81
2022-08-08T12:26:09.937Z,31.26
2022-08-08T12:29:40.657Z,31.41
2022-08-08T12:32:49.462Z,33.95
2022-08-08T12:35:57.076Z,33.56
2022-08-08T12:39:06.619Z,32.66
2022-08-08T12:42:21.356Z,34.63
2022-08-08T12:45:59.712Z,34.78
2022-08-08T12:52:34.472Z,32.57
2022-08-08T12:56:17.460Z,32.01
2022-08-08T12:59:27.389Z,32.71
2022-08-08T13:03:00.793Z,32.66
2022-08-08T13:06:13.986Z,31.53
2022-08-08T13:09:33.175Z,31.95
2022-08-08T13:12:46.993Z,30.30
2022-08-08T13:15:56.713Z,30.74
2022-08-08T13:19:12.341Z,30.99
2022-08-08T13:22:27.217Z,30.53
2022-08-08T13:25:36.250Z,33.75
2022-08-08T13:28:45.456Z,33.40
2022-08-08T13:31:53.764Z,33.58
2022-08-08T13:35:00.540Z,33.98
2022-08-08T13:38:08.638Z,33.73
2022-08-08T13:41:19.474Z,33.71
2022-08-08T13:44:30.081Z,32.37
2022-08-08T13:47:40.327Z,32.45
2022-08-08T13:51:33.848Z,32.00
2022-08-08T13:54:32.735Z,31.11
2022-08-08T13:57:46.293Z,32.24
2022-08-08T14:01:13.858Z,33.08
2022-08-08T14:04:25.973Z,34.47
2022-08-08T14:07:35.412Z,34.43
2022-08-08T14:10:45.284Z,34.59
2022-08-08T14:13:59.426Z,33.53
2022-08-08T14:17:22.035Z,32.25
2022-08-08T14:20:56.746Z,32.29
2022-08-08T14:24:03.815Z,32.13
2022-08-08T14:27:18.548Z,32.95
2022-08-08T14:30:35.827Z,34.45
2022-08-08T14:33:44.771Z,33.04
2022-08-08T14:36:55.966Z,33.01
2022-08-08T14:40:05.869Z,32.30
2022-08-08T14:43:22.495Z,32.67
2022-08-08T14:46:40.348Z,32.55
2022-08-08T14:50:05.959Z,33.31
2022-08-08T14:53:15.581Z,33.69
2022-08-08T14:56:21.686Z,32.54
2022-08-08T14:59:50.084Z,32.78
2022-08-08T15:03:14.269Z,33.36
2022-08-08T15:06:22.835Z,33.31
2022-08-08T15:09:30.319Z,34.18
2022-08-08T15:12:36.844Z,32.34
2022-08-08T15:16:02.768Z,32.53
2022-08-08T15:19:09.196Z,32.66
2022-08-08T15:22:23.352Z,33.45
2022-08-08T15:25:33.099Z,30.96
2022-08-08T15:28:39.751Z,32.39
2022-08-08T15:32:03.029Z,33.54
2022-08-08T15:35:12.639Z,34.68
2022-08-08T15:38:22.808Z,35.28
2022-08-08T15:41:37.254Z,34.83
2022-08-08T15:44:51.007Z,34.74
2022-08-08T15:48:15.315Z,35.34
2022-08-08T15:51:23.647Z,35.74
2022-08-08T15:54:40.373Z,36.35
2022-08-08T15:57:48.528Z,35.94
2022-08-08T16:00:54.750Z,36.45
2022-08-08T16:04:01.448Z,36.58
2022-08-08T16:07:07.795Z,36.71
2022-08-08T16:13:09.430Z,35.86
2022-08-08T16:13:45.776Z,37.01
2022-08-08T16:16:55.258Z,36.55
2022-08-08T16:20:01.609Z,36.18
2022-08-08T16:23:11.415Z,36.34
2022-08-08T16:26:19.349Z,37.20
2022-08-08T16:30:12.938Z,36.50
2022-08-08T16:33:07.414Z,37.49
2022-08-08T16:36:19.624Z,38.10
2022-08-08T16:40:00.489Z,37.62
2022-08-08T16:43:06.763Z,37.87
2022-08-08T16:46:37.296Z,37.57
2022-08-08T16:49:43.483Z,38.15
2022-08-08T16:55:22.583Z,37.93
2022-08-08T16:56:16.704Z,39.20
2022-08-08T16:59:23.494Z,39.40
2022-08-08T17:02:48.346Z,41.03
2022-08-08T17:05:56.569Z,39.99
2022-08-08T17:09:02.853Z,41.20
2022-08-08T17:12:10.270Z,40.47
2022-08-08T17:15:24.657Z,40.18
2022-08-08T17:18:42.479Z,40.95
2022-08-08T17:21:48.986Z,40.09
2022-08-08T17:24:55.578Z,40.44
2022-08-08T17:28:03.766Z,41.17
2022-08-08T17:31:39.152Z,42.61
2022-08-08T17:34:54.168Z,43.83
2022-08-08T17:38:04.335Z,44.75
2022-08-08T17:41:10.601Z,45.47
2022-08-08T17:44:18.218Z,46.50
2022-08-08T17:47:40.543Z,45.38
2022-08-08T17:50:48.978Z,46.78
2022-08-08T17:53:57.762Z,47.11
2022-08-08T17:57:05.228Z,48.46
2022-08-08T18:00:19.524Z,50.68
2022-08-08T18:03:27.879Z,52.48
2022-08-08T18:06:35.986Z,52.99
2022-08-08T18:09:49.694Z,53.70
2022-08-08T18:12:58.006Z,55.29
2022-08-08T18:16:06.002Z,56.22
2022-08-08T18:19:13.973Z,55.27
2022-08-08T18:22:49.732Z,54.87
2022-08-08T18:25:51.281Z,55.26
2022-08-08T18:28:58.044Z,56.08
2022-08-08T18:32:05.871Z,55.81
2022-08-08T18:35:16.626Z,57.01
2022-08-08T18:38:29.658Z,56.48
2022-08-08T18:41:51.636Z,56.09
2022-08-08T18:45:09.372Z,59.86
2022-08-08T18:48:29.474Z,58.14
2022-08-08T18:51:53.561Z,54.33
2022-08-08T18:55:10.345Z,52.10
2022-08-08T18:58:17.748Z,54.61
2022-08-08T19:02:25.813Z,56.74
2022-08-08T19:04:55.515Z,56.99
2022-08-08T19:08:02.250Z,59.93
2022-08-08T19:11:10.707Z,61.63
2022-08-08T19:14:23.672Z,60.21
2022-08-08T19:17:48.473Z,60.05
2022-08-08T19:20:56.017Z,64.09
2022-08-08T19:24:05.817Z,63.42
2022-08-08T19:27:14.935Z,63.68
2022-08-08T19:30:24.502Z,62.82
2022-08-08T19:33:52.235Z,63.76
2022-08-08T19:37:00.287Z,64.52
2022-08-08T19:40:08.623Z,65.04
2022-08-08T19:43:22.415Z,62.79
2022-08-08T19:46:34.587Z,61.94
2022-08-08T19:49:43.644Z,62.16
2022-08-08T19:53:51.420Z,62.46
2022-08-08T19:56:40.288Z,62.90
2022-08-08T19:59:48.489Z,63.24
2022-08-08T20:02:55.843Z,63.42
2022-08-08T20:06:14.776Z,63.37
2022-08-08T20:09:23.331Z,64.80
2022-08-08T20:12:32.361Z,65.74
2022-08-08T20:16:00.281Z,67.70
2022-08-08T20:19:07.105Z,68.59
2022-08-08T20:22:26.590Z,67.87
2022-08-08T20:25:37.027Z,69.01
2022-08-08T20:28:43.391Z,66.84
2022-08-08T20:32:07.567Z,70.14
2022-08-08T20:35:23.001Z,65.47
2022-08-08T20:38:39.561Z,66.17
2022-08-08T20:41:52.247Z,67.62
2022-08-08T20:44:59.907Z,68.16
2022-08-08T20:48:08.025Z,73.03
2022-08-08T20:51:15.319Z,72.18
2022-08-08T20:54:27.374Z,73.44
2022-08-08T20:57:35.311Z,74.75
2022-08-08T21:00:50.473Z,74.08
2022-08-08T21:04:01.419Z,81.22
2022-08-08T21:07:16.123Z,80.23
2022-08-08T21:10:22.642Z,80.47
2022-08-08T21:13:40.074Z,80.88
2022-08-08T21:16:47.725Z,80.94
2022-08-08T21:19:58.777Z,80.94
2022-08-08T21:23:09.214Z,79.51
2022-08-08T21:26:27.066Z,80.72
2022-08-08T21:30:05.523Z,81.90
2022-08-08T21:33:00.411Z,80.48
2022-08-08T21:36:21.568Z,80.62
2022-08-08T21:39:54.575Z,81.07
2022-08-08T21:43:01.640Z,83.79
2022-08-08T21:48:06.530Z,81.96
2022-08-08T21:49:37.655Z,82.99
2022-08-08T21:54:32.492Z,81.95
2022-08-08T21:56:26.072Z,79.02
2022-08-08T21:59:59.362Z,83.64
2022-08-08T22:03:05.120Z,82.76
2022-08-08T22:06:13.506Z,82.89
2022-08-08T22:09:43.557Z,84.96
2022-08-08T22:12:51.632Z,85.93
2022-08-08T22:16:00.815Z,89.09
2022-08-08T22:19:08.884Z,88.05
2022-08-08T22:22:28.804Z,89.29
2022-08-08T22:26:19.936Z,87.76
2022-08-08T22:29:55.260Z,85.99
2022-08-08T22:32:31.661Z,88.98
2022-08-08T22:36:04.145Z,91.60
2022-08-08T22:39:06.675Z,94.89
2022-08-08T22:42:27.046Z,93.06
2022-08-08T22:45:37.753Z,91.54
2022-08-08T22:48:48.991Z,87.78
2022-08-08T22:51:55.101Z,86.26
2022-08-08T22:55:04.776Z,90.31
2022-08-08T22:58:13.322Z,95.83
2022-08-08T23:02:02.711Z,100.00
2022-08-08T23:04:57.681Z,100.00
2022-08-08T23:08:04.767Z,99.26
2022-08-08T23:11:13.154Z,96.48
2022-08-08T23:14:21.941Z,98.80
2022-08-08T23:17:31.865Z,100.00
2022-08-08T23:20:54.931Z,97.02
2022-08-08T23:24:01.701Z,96.30
2022-08-08T23:27:09.150Z,96.98
2022-08-08T23:30:16.837Z,100.00
2022-08-08T23:34:15.278Z,100.00
2022-08-08T23:36:52.416Z,100.00
2022-08-08T23:40:00.833Z,100.00
2022-08-08T23:43:07.318Z,100.00
2022-08-08T23:49:07.122Z,100.00
2022-08-08T23:49:41.604Z,100.00
2022-08-08T23:52:48.161Z,100.00
2022-08-08T23:55:54.812Z,100.00
2022-08-08T23:59:16.854Z,95.64
